Time;durP1;ratioP1;P1;durP2;ratioP2;P2;SDS_P1;SDS_P2;PMS_P1;PMS_P2;Temp;Humidity;BMP_temperature;BMP_pressure;BME280_temperature;BME280_humidity;BME280_pressure;Samples;Min_cycle;Max_cycle;Signal;HPM_P1;HPM_P2
2022/02/15 00:00:51;;;;;;;0.20;0.10;;;;;;;5.01;100.00;99520.22;4995840;28;20449;-54
2022/02/15 00:03:18;;;;;;;0.20;0.10;;;;;;;4.99;100.00;99515.00;4995652;28;20465;-53
2022/02/15 00:05:44;;;;;;;0.30;0.20;;;;;;;4.92;100.00;99529.16;4995498;28;20478;-53
2022/02/15 00:08:11;;;;;;;0.20;0.10;;;;;;;4.87;100.00;99515.22;4995554;28;20910;-53
2022/02/15 00:10:39;;;;;;;0.20;0.10;;;;;;;4.84;100.00;99520.53;4995258;28;20446;-53
2022/02/15 00:13:06;;;;;;;6.17;1.70;;;;;;;4.87;100.00;99524.88;4995341;28;20453;-54
2022/02/15 00:15:32;;;;;;;0.20;0.10;;;;;;;4.93;100.00;99524.75;4995000;28;20536;-54
2022/02/15 00:17:59;;;;;;;1.60;1.60;;;;;;;5.01;100.00;99533.41;4995192;28;20970;-52
2022/02/15 00:20:27;;;;;;;0.20;0.10;;;;;;;4.97;100.00;99531.72;4995145;28;20536;-54
2022/02/15 00:22:54;;;;;;;0.20;0.10;;;;;;;4.84;100.00;99520.53;4995196;28;20450;-54
2022/02/15 00:25:21;;;;;;;0.20;0.10;;;;;;;4.71;100.00;99519.03;4994937;28;20473;-53
2022/02/15 00:27:49;;;;;;;0.20;0.20;;;;;;;4.94;100.00;99516.84;4994928;28;20457;-54
2022/02/15 00:30:16;;;;;;;0.20;0.10;;;;;;;5.13;100.00;99513.88;4994464;28;20472;-54
2022/02/15 00:32:43;;;;;;;0.20;0.10;;;;;;;5.13;100.00;99509.47;4994941;28;20492;-54
2022/02/15 00:35:10;;;;;;;0.20;0.10;;;;;;;5.23;100.00;99518.94;4994511;28;20862;-53
2022/02/15 00:37:38;;;;;;;0.20;0.10;;;;;;;5.15;100.00;99519.97;4994825;28;20511;-54
2022/02/15 00:40:06;;;;;;;0.20;0.10;;;;;;;5.10;100.00;99519.19;4994655;28;20528;-52
2022/02/15 00:42:32;;;;;;;0.20;0.10;;;;;;;5.19;100.00;99519.88;4994685;28;20954;-54
2022/02/15 00:44:59;;;;;;;0.20;0.20;;;;;;;5.22;100.00;99518.97;4994700;28;20615;-54
2022/02/15 00:47:26;;;;;;;0.20;0.10;;;;;;;5.29;100.00;99524.06;4994729;28;20450;-53
2022/02/15 00:49:52;;;;;;;0.20;0.10;;;;;;;5.37;100.00;99521.31;4994708;28;20473;-54
2022/02/15 00:52:19;;;;;;;0.20;0.10;;;;;;;5.46;100.00;99525.50;4994647;28;20477;-51
2022/02/15 00:54:46;;;;;;;0.20;0.10;;;;;;;5.46;100.00;99520.22;4994432;28;20539;-54
2022/02/15 00:57:13;;;;;;;0.20;0.20;;;;;;;5.44;100.00;99524.66;4994653;28;20457;-54
2022/02/15 00:59:39;;;;;;;0.20;0.10;;;;;;;5.45;100.00;99532.53;4994346;28;20489;-53
2022/02/15 01:02:06;;;;;;;0.20;0.10;;;;;;;5.42;100.00;99531.75;4994529;28;20967;-54
2022/02/15 01:04:33;;;;;;;0.20;0.20;;;;;;;5.55;100.00;99531.47;4994299;28;20548;-54
2022/02/15 01:07:01;;;;;;;0.20;0.13;;;;;;;5.51;100.00;99526.28;4994367;28;20457;-54
2022/02/15 01:09:27;;;;;;;0.20;0.10;;;;;;;5.59;100.00;99532.25;4994490;28;20830;-52
2022/02/15 01:11:54;;;;;;;0.20;0.10;;;;;;;5.67;100.00;99534.75;4994372;28;20461;-54
2022/02/15 01:14:20;;;;;;;0.20;0.10;;;;;;;5.75;100.00;99533.66;4994110;28;20850;-53
2022/02/15 01:16:47;;;;;;;0.37;0.37;;;;;;;5.67;100.00;99527.72;4994052;28;20487;-53
2022/02/15 01:19:14;;;;;;;0.20;0.20;;;;;;;5.68;100.00;99533.84;4994125;28;20547;-53
2022/02/15 01:21:40;;;;;;;0.20;0.20;;;;;;;5.64;100.00;99530.41;4993993;28;20457;-53
2022/02/15 01:24:07;;;;;;;0.20;0.10;;;;;;;5.57;100.00;99532.28;4993683;28;20453;-54
2022/02/15 01:26:34;;;;;;;0.20;0.10;;;;;;;5.53;100.00;99528.00;4994098;28;20499;-54
2022/02/15 01:29:01;;;;;;;0.20;0.10;;;;;;;5.60;100.00;99528.72;4994005;28;20962;-53
2022/02/15 01:31:27;;;;;;;0.20;0.10;;;;;;;5.58;100.00;99522.63;4994009;28;20454;-52
2022/02/15 01:33:54;;;;;;;0.20;0.10;;;;;;;5.73;100.00;99529.34;4993953;28;20485;-54
2022/02/15 01:36:20;;;;;;;0.20;0.20;;;;;;;5.76;100.00;99526.66;4993414;28;20481;-53
2022/02/15 01:38:47;;;;;;;1.70;0.50;;;;;;;5.80;100.00;99526.53;4981008;28;20485;-54
2022/02/15 01:41:14;;;;;;;0.20;0.10;;;;;;;5.83;100.00;99526.47;4992984;28;20537;-53
2022/02/15 01:43:43;;;;;;;1.47;1.37;;;;;;;5.80;100.00;99525.69;4993737;28;20453;-53
2022/02/15 01:46:11;;;;;;;0.20;0.10;;;;;;;5.67;100.00;99526.84;4992091;28;20966;-52
2022/02/15 01:48:39;;;;;;;0.20;0.20;;;;;;;5.53;100.00;99525.34;4993501;28;20951;-53
2022/02/15 01:51:06;;;;;;;0.20;0.10;;;;;;;5.57;100.00;99515.63;4993295;28;20890;-53
2022/02/15 01:53:33;;;;;;;0.20;0.10;;;;;;;5.59;100.00;99526.97;4993334;28;21017;-53
2022/02/15 01:56:00;;;;;;;0.20;0.10;;;;;;;5.59;100.00;99519.94;4993402;28;20504;-53
2022/02/15 01:58:27;;;;;;;0.20;0.20;;;;;;;5.80;100.00;99525.69;4993383;28;20453;-53
2022/02/15 02:00:53;;;;;;;0.20;0.10;;;;;;;5.90;100.00;99529.91;4993206;28;20907;-52
2022/02/15 02:03:20;;;;;;;0.20;0.10;;;;;;;5.94;100.00;99521.88;4993429;28;20549;-53
2022/02/15 02:05:50;;;;;;;0.43;0.43;;;;;;;6.00;100.00;99518.22;4992852;28;20474;-53
2022/02/15 02:08:22;;;;;;;0.20;0.20;;;;;;;6.14;100.00;99516.13;4993648;28;20504;-52
2022/02/15 02:10:51;;;;;;;0.20;0.20;;;;;;;6.16;100.00;99514.31;4993148;28;20955;-53
2022/02/15 02:13:18;;;;;;;0.20;0.20;;;;;;;6.28;100.00;99507.03;4993113;28;20450;-54
2022/02/15 02:15:46;;;;;;;0.20;0.10;;;;;;;6.18;100.00;99501.97;4992803;28;20466;-53
2022/02/15 02:18:13;;;;;;;0.20;0.10;;;;;;;6.24;100.00;99509.75;4993026;28;20480;-54
2022/02/15 02:20:40;;;;;;;0.20;0.10;;;;;;;6.26;100.00;99506.19;4992852;28;20528;-54
2022/02/15 02:23:09;;;;;;;0.20;0.10;;;;;;;6.62;100.00;99505.31;4993143;28;20524;-53
2022/02/15 02:25:36;;;;;;;1.17;0.30;;;;;;;6.64;100.00;99503.50;4992926;28;20473;-53
2022/02/15 02:28:03;;;;;;;0.20;0.20;;;;;;;6.84;100.00;99503.81;4993006;28;20483;-53
2022/02/15 02:30:30;;;;;;;0.20;0.10;;;;;;;6.91;100.00;99498.41;4992911;28;20445;-53
2022/02/15 02:32:57;;;;;;;0.20;0.10;;;;;;;6.99;100.00;99496.41;4993079;28;20523;-54
2022/02/15 02:35:23;;;;;;;0.20;0.20;;;;;;;6.92;100.00;99510.69;4992719;28;20485;-53
2022/02/15 02:37:50;;;;;;;0.20;0.13;;;;;;;7.03;100.00;99512.16;4993032;28;20466;-54
2022/02/15 02:40:17;;;;;;;0.20;0.10;;;;;;;7.05;100.00;99517.41;4992815;28;20869;-53
2022/02/15 02:42:44;;;;;;;0.20;0.10;;;;;;;6.93;100.00;99513.28;4992867;28;20453;-54
2022/02/15 02:45:16;;;;;;;0.20;0.10;;;;;;;7.02;100.00;99512.19;4992698;28;20470;-54
2022/02/15 02:47:45;;;;;;;0.20;0.10;;;;;;;7.09;100.00;99508.47;4992747;28;20453;-53
2022/02/15 02:50:13;;;;;;;0.20;0.10;;;;;;;7.16;100.00;99520.63;4992884;28;20480;-53
2022/02/15 02:52:42;;;;;;;0.20;0.20;;;;;;;7.33;100.00;99512.22;4993776;28;20492;-54
2022/02/15 02:55:09;;;;;;;0.20;0.13;;;;;;;7.32;100.00;99515.78;4983948;28;20504;-53
2022/02/15 02:57:36;;;;;;;0.20;0.10;;;;;;;7.41;100.00;99518.16;4996502;28;20453;-53
2022/02/15 03:00:11;;;;;;;0.30;0.30;;;;;;;7.37;100.00;99522.66;4996468;28;20501;-52
2022/02/15 03:02:38;;;;;;;0.20;0.10;;;;;;;7.52;100.00;99517.84;4996712;28;20934;-52
2022/02/15 03:05:05;;;;;;;0.30;0.10;;;;;;;7.58;100.00;99523.84;4996527;28;20473;-52
2022/02/15 03:07:33;;;;;;;0.20;0.10;;;;;;;7.71;100.00;99517.28;4990361;28;20943;-53
2022/02/15 03:13:41;;;;;;;0.20;0.20;;;;;;;7.80;100.00;99544.34;4989293;28;20476;-53
2022/02/15 03:16:07;;;;;;;0.20;0.20;;;;;;;7.73;100.00;99533.97;4996231;28;20520;-52
2022/02/15 03:18:34;;;;;;;0.20;0.10;;;;;;;7.71;100.00;99527.88;4996257;28;20851;-51
2022/02/15 03:21:01;;;;;;;0.30;0.10;;;;;;;7.81;100.00;99535.50;4996038;28;21048;-53
2022/02/15 03:23:27;;;;;;;0.20;0.13;;;;;;;7.68;100.00;99542.97;4996387;28;20492;-52
2022/02/15 03:25:54;;;;;;;0.30;0.20;;;;;;;7.65;100.00;99540.38;4996024;28;20473;-53
2022/02/15 03:28:20;;;;;;;0.20;0.20;;;;;;;7.62;100.00;99545.78;4996580;28;20503;-53
2022/02/15 03:30:47;;;;;;;0.20;0.20;;;;;;;7.59;100.00;99551.16;4983082;28;20453;-53
2022/02/15 03:33:14;;;;;;;0.20;0.17;;;;;;;7.58;100.00;99545.00;4996399;28;20500;-51
2022/02/15 03:35:41;;;;;;;0.20;0.20;;;;;;;7.52;100.00;99547.78;4995599;28;20867;-52
2022/02/15 03:38:07;;;;;;;0.20;0.10;;;;;;;7.54;100.00;99546.00;4995912;28;20529;-52
2022/02/15 03:43:23;;;;;;;0.30;0.30;;;;;;;7.50;100.00;99554.03;4977015;28;20476;-52
2022/02/15 03:45:50;;;;;;;0.20;0.20;;;;;;;7.50;100.00;99549.63;4995826;28;20532;-53
2022/02/15 03:48:17;;;;;;;0.20;0.20;;;;;;;7.39;100.00;99549.03;4995818;28;20508;-52
2022/02/15 03:50:44;;;;;;;0.30;0.10;;;;;;;7.40;100.00;99556.97;4995839;28;20446;-53
2022/02/15 03:53:11;;;;;;;0.20;0.20;;;;;;;7.42;100.00;99555.13;4995561;28;20480;-53
2022/02/15 03:55:38;;;;;;;0.20;0.20;;;;;;;7.42;100.00;99565.72;4995566;28;20473;-53
2022/02/15 03:58:05;;;;;;;0.20;0.17;;;;;;;7.45;100.00;99570.03;4995513;28;20500;-53
2022/02/15 04:00:31;;;;;;;0.20;0.20;;;;;;;7.48;100.00;99566.44;4995362;28;20489;-52
2022/02/15 04:02:58;;;;;;;0.20;0.10;;;;;;;7.50;100.00;99572.56;4995618;28;20461;-53
2022/02/15 04:05:25;;;;;;;0.20;0.20;;;;;;;7.47;100.00;99578.78;4994597;28;20473;-52
2022/02/15 04:07:51;;;;;;;0.20;0.20;;;;;;;7.43;100.00;99580.66;4995370;28;20480;-53
2022/02/15 04:10:19;;;;;;;0.20;0.13;;;;;;;7.42;100.00;99580.72;4995343;28;20481;-53
2022/02/15 04:12:46;;;;;;;0.20;0.20;;;;;;;7.47;100.00;99577.94;4995246;28;20449;-53
2022/02/15 04:15:14;;;;;;;0.30;0.20;;;;;;;7.53;100.00;99583.91;4995420;28;20501;-53
2022/02/15 04:17:41;;;;;;;0.20;0.10;;;;;;;7.51;100.00;99585.72;4995036;28;21010;-52
2022/02/15 04:20:08;;;;;;;0.20;0.17;;;;;;;7.47;100.00;99577.94;4995214;28;20572;-52
2022/02/15 04:22:35;;;;;;;0.20;0.20;;;;;;;7.52;100.00;99589.22;4994919;28;20966;-53
2022/02/15 04:25:03;;;;;;;0.20;0.20;;;;;;;7.51;100.00;99591.00;4995047;28;20512;-53
2022/02/15 04:27:30;;;;;;;0.20;0.10;;;;;;;7.52;100.00;99600.69;4994915;28;20536;-52
2022/02/15 04:29:57;;;;;;;0.20;0.20;;;;;;;7.54;100.00;99592.69;4995007;28;20536;-53
2022/02/15 04:32:24;;;;;;;0.20;0.10;;;;;;;7.57;100.00;99598.81;4994951;28;20477;-54
2022/02/15 04:34:51;;;;;;;0.20;0.10;;;;;;;7.61;100.00;99602.22;4995185;28;20523;-53
2022/02/15 04:37:18;;;;;;;0.20;0.10;;;;;;;7.61;100.00;99603.09;4994993;28;20530;-53
2022/02/15 04:39:44;;;;;;;0.30;0.20;;;;;;;7.66;100.00;99605.59;4994546;28;20450;-52
2022/02/15 04:42:11;;;;;;;0.20;0.20;;;;;;;7.61;100.00;99613.66;4995036;28;20552;-53
2022/02/15 04:44:37;;;;;;;0.20;0.20;;;;;;;7.65;100.00;99610.00;4994764;28;20505;-53
2022/02/15 04:47:04;;;;;;;0.20;0.20;;;;;;;7.65;100.00;99612.66;4994731;28;20457;-53
2022/02/15 04:49:32;;;;;;;0.20;0.20;;;;;;;7.66;100.00;99616.16;4994618;28;20485;-53
2022/02/15 04:51:59;;;;;;;0.20;0.20;;;;;;;7.56;100.00;99615.56;4994612;28;20603;-52
2022/02/15 04:54:26;;;;;;;0.20;0.10;;;;;;;7.59;100.00;99617.25;4994271;28;20564;-53
2022/02/15 04:56:53;;;;;;;0.20;0.20;;;;;;;7.66;100.00;99621.47;4994740;28;20529;-53
2022/02/15 04:59:20;;;;;;;0.20;0.10;;;;;;;7.61;100.00;99626.88;4994518;28;20454;-52
2022/02/15 05:01:47;;;;;;;0.30;0.20;;;;;;;7.58;100.00;99632.25;4994430;28;20501;-53
2022/02/15 05:06:59;;;;;;;0.20;0.20;;;;;;;7.55;100.00;99631.50;4994246;28;20528;-53
2022/02/15 05:09:29;;;;;;;0.20;0.10;;;;;;;7.54;100.00;99637.66;4994376;28;20477;-53
2022/02/15 05:11:56;;;;;;;0.20;0.17;;;;;;;7.46;100.00;99639.66;4994105;28;20528;-53
2022/02/15 05:14:23;;;;;;;0.20;0.20;;;;;;;7.45;100.00;99632.63;4994156;28;20474;-52
2022/02/15 05:16:50;;;;;;;0.20;0.20;;;;;;;7.51;100.00;99638.63;4993986;28;20453;-53
2022/02/15 05:19:16;;;;;;;0.30;0.20;;;;;;;7.50;100.00;99638.66;4993987;28;20481;-53
2022/02/15 05:21:43;;;;;;;0.20;0.20;;;;;;;7.51;100.00;99643.03;4994006;28;20580;-54
2022/02/15 05:24:09;;;;;;;0.50;0.50;;;;;;;7.47;100.00;99644.03;4993935;28;20540;-53
2022/02/15 05:26:36;;;;;;;0.20;0.20;;;;;;;7.42;100.00;99644.16;4993891;28;21001;-53
2022/02/15 05:29:03;;;;;;;0.20;0.20;;;;;;;7.45;100.00;99659.06;4993743;28;20492;-53
2022/02/15 05:31:29;;;;;;;0.20;0.20;;;;;;;7.51;100.00;99649.19;4993888;28;20541;-53
2022/02/15 05:33:56;;;;;;;0.20;0.20;;;;;;;7.66;100.00;99648.78;4993668;28;20485;-53
2022/02/15 05:36:22;;;;;;;0.20;0.10;;;;;;;7.58;100.00;99656.06;4993487;28;20509;-53
2022/02/15 05:38:49;;;;;;;0.20;0.20;;;;;;;7.54;100.00;99650.88;4993737;28;20528;-53
2022/02/15 05:41:15;;;;;;;0.20;0.20;;;;;;;7.54;100.00;99650.88;4993705;28;20933;-52
2022/02/15 05:43:42;;;;;;;0.30;0.20;;;;;;;7.52;100.00;99658.00;4993507;28;20962;-52
2022/02/15 05:46:09;;;;;;;0.30;0.27;;;;;;;7.57;100.00;99653.47;4993495;28;20473;-53
2022/02/15 05:48:35;;;;;;;0.20;0.10;;;;;;;7.52;100.00;99660.63;4993276;28;20492;-53
2022/02/15 05:51:02;;;;;;;0.20;0.20;;;;;;;7.50;100.00;99675.69;4993894;28;20473;-53
2022/02/15 05:53:30;;;;;;;0.20;0.20;;;;;;;7.57;100.00;99682.56;4993580;28;20489;-53
2022/02/15 05:55:59;;;;;;;0.70;0.70;;;;;;;7.50;100.00;99686.25;4993327;28;20528;-52
2022/02/15 05:58:26;;;;;;;0.20;0.20;;;;;;;7.53;100.00;99700.25;4992168;28;20454;-53
2022/02/15 06:00:53;;;;;;;0.20;0.10;;;;;;;7.50;100.00;99694.19;4993187;28;20905;-53
2022/02/15 06:06:05;;;;;;;0.20;0.20;;;;;;;7.58;100.00;99689.59;4993459;28;20519;-52
2022/02/15 06:08:31;;;;;;;0.20;0.10;;;;;;;7.62;100.00;99693.88;4993554;28;20832;-53
2022/02/15 06:10:58;;;;;;;0.20;0.20;;;;;;;7.56;100.00;99701.97;4993149;28;20485;-53
2022/02/15 06:13:25;;;;;;;0.20;0.10;;;;;;;7.54;100.00;99701.13;4993144;28;20496;-53
2022/02/15 06:15:51;;;;;;;0.20;0.20;;;;;;;7.60;100.00;99706.28;4992795;28;20469;-53
2022/02/15 06:18:18;;;;;;;0.20;0.20;;;;;;;7.51;100.00;99703.84;4993203;28;20493;-53
2022/02/15 06:20:45;;;;;;;0.20;0.20;;;;;;;7.49;100.00;99705.69;4992929;28;20520;-53
2022/02/15 06:23:12;;;;;;;0.20;0.20;;;;;;;7.40;100.00;99707.66;4993166;28;20958;-53
2022/02/15 06:25:38;;;;;;;0.20;0.20;;;;;;;7.47;100.00;99718.94;4992917;28;20846;-53
2022/02/15 06:28:06;;;;;;;0.20;0.20;;;;;;;7.40;100.00;99717.34;4991484;28;20485;-53
2022/02/15 06:30:33;;;;;;;0.30;0.20;;;;;;;7.40;100.00;99733.19;4992974;28;20480;-53
2022/02/15 06:32:59;;;;;;;0.20;0.20;;;;;;;7.42;100.00;99729.63;4992981;28;20457;-51
2022/02/15 06:35:26;;;;;;;0.20;0.20;;;;;;;7.41;100.00;99749.06;4992743;28;20477;-53
2022/02/15 06:37:53;;;;;;;0.20;0.10;;;;;;;7.46;100.00;99742.78;4993145;28;20449;-53
2022/02/15 06:40:21;;;;;;;0.20;0.10;;;;;;;7.45;100.00;99739.25;4992840;28;20488;-53
2022/02/15 06:42:48;;;;;;;0.20;0.20;;;;;;;7.41;100.00;99737.63;4992640;28;20835;-53
2022/02/15 06:45:15;;;;;;;0.30;0.20;;;;;;;7.47;100.00;99750.66;4992789;28;20898;-52
2022/02/15 06:47:42;;;;;;;0.20;0.20;;;;;;;7.43;100.00;99764.88;4992924;28;20507;-53
2022/02/15 06:50:09;;;;;;;0.20;0.10;;;;;;;7.67;100.00;99763.38;4992772;28;21005;-53
2022/02/15 06:52:36;;;;;;;0.20;0.20;;;;;;;7.69;100.00;99770.41;4992872;28;20453;-52
2022/02/15 06:55:22;;;;;;;0.20;0.10;;;;;;;7.60;100.00;99780.31;4982120;28;20862;-53
2022/02/15 06:57:49;;;;;;;0.20;0.20;;;;;;;7.42;100.00;99776.38;4992549;28;20966;-53
2022/02/15 07:00:16;;;;;;;0.20;0.10;;;;;;;7.59;100.00;99784.75;4992749;28;20461;-54
2022/02/15 07:02:43;;;;;;;0.20;0.10;;;;;;;7.50;100.00;99782.31;4992668;28;20457;-54
2022/02/15 07:05:10;;;;;;;0.20;0.20;;;;;;;7.47;100.00;99794.75;4992514;28;20603;-53
2022/02/15 07:07:37;;;;;;;0.20;0.10;;;;;;;7.67;100.00;99792.47;4992295;28;20504;-52
2022/02/15 07:10:05;;;;;;;0.20;0.10;;;;;;;7.62;100.00;99794.38;4992855;28;20477;-53
2022/02/15 07:12:32;;;;;;;0.20;0.20;;;;;;;7.59;100.00;99807.69;4992386;28;20454;-53
2022/02/15 07:14:58;;;;;;;0.20;0.10;;;;;;;7.63;100.00;99804.03;4992571;28;20473;-53
2022/02/15 07:17:26;;;;;;;0.20;0.17;;;;;;;7.58;100.00;99808.59;4992418;28;20519;-53
2022/02/15 07:19:53;;;;;;;0.20;0.10;;;;;;;7.55;100.00;99816.59;4992441;28;20796;-53
2022/02/15 07:22:20;;;;;;;0.20;0.10;;;;;;;7.60;100.00;99822.66;4992008;28;20540;-53
2022/02/15 07:24:47;;;;;;;0.20;0.20;;;;;;;7.59;100.00;99818.25;4992676;28;20477;-54
2022/02/15 07:27:14;;;;;;;0.20;0.20;;;;;;;7.58;100.00;99825.31;4992532;28;20449;-54
2022/02/15 07:29:40;;;;;;;0.20;0.20;;;;;;;7.63;100.00;99827.84;4992703;28;20889;-54
2022/02/15 07:32:07;;;;;;;0.20;0.10;;;;;;;7.71;100.00;99828.56;4992320;28;20876;-54
2022/02/15 07:34:34;;;;;;;0.20;0.10;;;;;;;7.71;100.00;99831.19;4992450;28;20523;-53
2022/02/15 07:37:01;;;;;;;0.20;0.20;;;;;;;7.74;100.00;99839.03;4992153;28;20973;-53
2022/02/15 07:39:28;;;;;;;1.07;1.03;;;;;;;7.71;100.00;99837.34;4993459;28;20457;-54
2022/02/15 07:41:54;;;;;;;0.20;0.20;;;;;;;7.77;100.00;99841.63;4995970;28;20551;-54
2022/02/15 07:44:21;;;;;;;0.20;0.10;;;;;;;7.80;100.00;99841.53;4996148;28;20501;-54
2022/02/15 07:46:48;;;;;;;0.20;0.20;;;;;;;7.82;100.00;99857.41;4995776;28;20449;-52
2022/02/15 07:49:15;;;;;;;0.20;0.10;;;;;;;7.82;100.00;99858.25;4995835;28;20515;-54
2022/02/15 07:51:41;;;;;;;0.20;0.10;;;;;;;7.90;100.00;99868.66;4995845;28;20438;-54
2022/02/15 07:54:08;;;;;;;0.20;0.20;;;;;;;7.91;100.00;99862.44;4995625;28;20457;-53
2022/02/15 07:56:35;;;;;;;0.30;0.30;;;;;;;7.98;100.00;99866.69;4995825;28;20503;-53
2022/02/15 07:59:02;;;;;;;0.20;0.20;;;;;;;7.98;100.00;99870.19;4995947;28;20449;-53
2022/02/15 08:01:28;;;;;;;0.30;0.20;;;;;;;8.17;100.00;99878.53;4995382;28;20489;-53
2022/02/15 08:03:56;;;;;;;0.20;0.10;;;;;;;8.18;100.00;99884.69;4995421;28;20874;-53
2022/02/15 08:06:23;;;;;;;0.20;0.20;;;;;;;8.10;100.00;99892.00;4995332;28;20477;-53
2022/02/15 08:08:49;;;;;;;0.20;0.20;;;;;;;8.07;100.00;99897.34;4995500;28;20476;-53
2022/02/15 08:11:16;;;;;;;0.30;0.20;;;;;;;8.10;100.00;99890.22;4995556;28;20472;-53
2022/02/15 08:13:44;;;;;;;0.20;0.20;;;;;;;7.97;100.00;99894.94;4995334;28;20445;-53
2022/02/15 08:16:11;;;;;;;0.20;0.20;;;;;;;7.98;100.00;99888.72;4994153;28;20470;-52
2022/02/15 08:18:41;;;;;;;0.20;0.10;;;;;;;8.32;100.00;99895.81;4995270;28;20951;-52
2022/02/15 08:21:10;;;;;;;0.33;0.33;;;;;;;8.12;100.00;99885.75;4995208;28;20927;-52
2022/02/15 08:23:57;;;;;;;0.20;0.20;;;;;;;8.37;100.00;99891.31;4995382;28;20441;-53
2022/02/15 08:26:25;;;;;;;0.20;0.13;;;;;;;8.47;100.00;99897.22;4995161;28;20520;-53
2022/02/15 08:28:52;;;;;;;0.20;0.10;;;;;;;8.55;100.00;99898.78;4994878;28;20950;-52
2022/02/15 08:31:18;;;;;;;0.27;0.20;;;;;;;8.64;100.00;99902.97;4995582;28;20488;-52
2022/02/15 08:33:45;;;;;;;0.20;0.10;;;;;;;8.81;100.00;99907.78;4995076;28;20454;-52
2022/02/15 08:36:12;;;;;;;0.20;0.10;;;;;;;8.68;100.00;99914.34;4994889;28;20536;-53
2022/02/15 08:38:38;;;;;;;0.30;0.20;;;;;;;8.72;100.00;99914.19;4995019;28;20497;-53
2022/02/15 08:41:05;;;;;;;0.30;0.20;;;;;;;8.85;100.00;99915.59;4994914;28;20528;-53
2022/02/15 08:43:32;;;;;;;0.30;0.20;;;;;;;8.57;100.00;99920.78;4994730;28;20477;-53
2022/02/15 08:45:59;;;;;;;0.30;0.20;;;;;;;8.76;100.00;99917.63;4993642;28;20529;-53
2022/02/15 08:48:26;;;;;;;0.30;0.20;;;;;;;8.89;100.00;99927.84;4995030;28;20481;-53
2022/02/15 08:50:53;;;;;;;0.30;0.10;;;;;;;9.12;100.00;99924.56;4994438;28;20959;-53
2022/02/15 08:53:19;;;;;;;0.30;0.20;;;;;;;9.22;100.00;99927.84;4994684;28;20453;-53
2022/02/15 08:55:46;;;;;;;0.30;0.20;;;;;;;9.48;100.00;99930.59;4994471;28;20473;-53
2022/02/15 08:58:13;;;;;;;0.30;0.20;;;;;;;9.45;100.00;99933.31;4994447;28;20454;-53
2022/02/15 09:00:39;;;;;;;0.30;0.17;;;;;;;9.34;100.00;99934.56;4994705;28;20508;-53
2022/02/15 09:03:06;;;;;;;0.30;0.30;;;;;;;9.57;100.00;99936.53;4994331;28;20488;-53
2022/02/15 09:05:33;;;;;;;1.40;0.50;;;;;;;9.64;100.00;99946.91;4994431;28;20481;-53
2022/02/15 09:08:00;;;;;;;0.30;0.20;;;;;;;9.70;100.00;99944.06;4994370;28;20454;-53
2022/02/15 09:10:26;;;;;;;0.30;0.20;;;;;;;9.27;100.00;99947.13;4994475;28;20822;-53
2022/02/15 09:12:53;;;;;;;0.30;0.20;;;;;;;9.34;100.00;99945.19;4994398;28;20869;-53
2022/02/15 09:15:20;;;;;;;0.30;0.20;;;;;;;9.29;100.00;99947.94;4994345;28;20473;-51
2022/02/15 09:17:46;;;;;;;0.30;0.20;;;;;;;9.25;100.00;99948.09;4994146;28;20958;-53
2022/02/15 09:20:13;;;;;;;0.30;0.13;;;;;;;9.32;100.00;99947.88;4994424;28;20504;-53
2022/02/15 09:22:40;;;;;;;0.30;0.20;;;;;;;9.56;100.00;99954.22;4994245;28;20532;-53
2022/02/15 09:25:07;;;;;;;0.30;0.20;;;;;;;9.71;100.00;99955.53;4994090;28;20477;-53
2022/02/15 09:27:34;;;;;;;0.30;0.20;;;;;;;9.66;100.00;99953.03;4994395;28;21194;-53
2022/02/15 09:30:00;;;;;;;0.30;0.20;;;;;;;9.76;99.47;99965.13;4993855;28;20480;-53
2022/02/15 09:32:27;;;;;;;0.30;0.20;;;;;;;9.58;98.33;99968.31;4994296;28;20500;-52
2022/02/15 09:34:58;;;;;;;0.30;0.10;;;;;;;9.66;98.18;99963.66;4993852;28;20939;-53
2022/02/15 09:37:25;;;;;;;0.30;0.20;;;;;;;9.75;98.80;99971.34;4994307;28;20449;-51
2022/02/15 09:39:54;;;;;;;0.30;0.20;;;;;;;9.97;98.70;99968.00;4993926;28;20477;-53
2022/02/15 09:42:21;;;;;;;0.30;0.20;;;;;;;9.92;98.93;99962.00;4994475;28;20485;-53
2022/02/15 09:44:47;;;;;;;0.30;0.20;;;;;;;9.77;100.00;99979.25;4993842;28;20478;-52
2022/02/15 09:47:23;;;;;;;0.30;0.20;;;;;;;9.63;100.00;99977.03;4994016;28;20453;-53
2022/02/15 09:49:51;;;;;;;0.30;0.20;;;;;;;9.94;99.45;99966.34;4994122;28;20797;-53
2022/02/15 09:52:25;;;;;;;0.30;0.20;;;;;;;9.74;100.00;99972.28;4993785;28;20535;-53
2022/02/15 09:54:52;;;;;;;0.30;0.20;;;;;;;9.78;99.69;99979.22;4994320;28;20473;-53
2022/02/15 09:57:20;;;;;;;0.30;0.20;;;;;;;9.91;98.74;99973.53;4993824;28;20450;-53
2022/02/15 09:59:48;;;;;;;0.30;0.20;;;;;;;9.58;97.42;99980.72;4993501;28;20528;-53
2022/02/15 10:02:20;;;;;;;0.30;0.10;;;;;;;9.50;94.41;99975.66;4992657;28;20521;-53
2022/02/15 10:04:54;;;;;;;0.30;0.20;;;;;;;9.49;94.43;99979.22;4993338;28;20474;-51
2022/02/15 10:07:23;;;;;;;0.30;0.20;;;;;;;9.55;95.16;99984.31;4993464;28;20449;-53
2022/02/15 10:09:54;;;;;;;0.30;0.20;;;;;;;9.40;96.62;99998.91;4993644;28;20453;-53
2022/02/15 10:12:22;;;;;;;0.30;0.20;;;;;;;9.43;97.66;99995.28;4993456;28;20469;-53
2022/02/15 10:14:52;;;;;;;0.30;0.20;;;;;;;9.33;98.38;99989.41;4993180;28;21006;-53
2022/02/15 10:17:20;;;;;;;0.30;0.20;;;;;;;9.47;98.18;99995.19;4992987;28;20540;-53
2022/02/15 10:19:48;;;;;;;0.30;0.30;;;;;;;9.48;98.29;100002.22;4993352;28;20457;-53
2022/02/15 10:22:21;;;;;;;0.30;0.20;;;;;;;9.52;97.46;100007.44;4992987;28;20528;-53
2022/02/15 10:25:02;;;;;;;0.30;0.20;;;;;;;9.59;95.30;100006.31;4993028;28;21054;-53
2022/02/15 10:27:32;;;;;;;0.30;0.20;;;;;;;9.43;96.24;100009.44;4993105;28;20822;-53
2022/02/15 10:30:02;;;;;;;0.30;0.20;;;;;;;9.59;95.70;100011.63;4993201;28;20810;-53
2022/02/15 10:32:28;;;;;;;0.30;0.20;;;;;;;9.60;95.01;100022.22;4992935;28;21013;-53
2022/02/15 10:34:59;;;;;;;0.30;0.20;;;;;;;9.88;93.98;100026.72;4993387;28;20485;-52
2022/02/15 10:37:32;;;;;;;0.50;0.50;;;;;;;9.96;93.69;100027.34;4993195;28;20453;-51
2022/02/15 10:40:02;;;;;;;0.30;0.20;;;;;;;9.93;93.08;100024.78;4992888;28;20445;-51
2022/02/15 10:42:30;;;;;;;0.30;0.20;;;;;;;9.92;93.10;100021.28;4992996;28;20593;-52
2022/02/15 10:45:04;;;;;;;0.30;0.20;;;;;;;9.77;92.85;100027.03;4992760;28;20492;-51
2022/02/15 10:47:33;;;;;;;0.30;0.20;;;;;;;10.02;92.72;100036.00;4992865;28;20479;-52
2022/02/15 10:50:04;;;;;;;0.30;0.20;;;;;;;10.08;91.47;100041.13;4992933;28;20453;-50
2022/02/15 10:52:30;;;;;;;0.30;0.20;;;;;;;9.88;91.21;100048.84;4992815;28;20442;-50
2022/02/15 10:54:58;;;;;;;0.30;0.20;;;;;;;9.79;92.05;100047.31;4992583;28;20476;-50
2022/02/15 10:57:25;;;;;;;0.30;0.20;;;;;;;9.69;92.25;100053.78;4992974;28;20466;-50
2022/02/15 10:59:54;;;;;;;0.30;0.20;;;;;;;9.30;88.89;100060.22;4992607;28;20454;-49
2022/02/15 11:02:23;;;;;;;0.30;0.20;;;;;;;9.22;89.17;100060.44;4992695;28;20844;-50
2022/02/15 11:04:51;;;;;;;0.30;0.20;;;;;;;9.14;88.45;100062.41;4992700;28;20478;-49
2022/02/15 11:07:22;;;;;;;0.27;0.10;;;;;;;9.19;90.92;100055.22;4992647;28;20485;-50
2022/02/15 11:10:23;;;;;;;0.30;0.20;;;;;;;9.10;91.06;100053.66;4992716;28;20508;-50
2022/02/15 11:12:51;;;;;;;0.30;0.20;;;;;;;9.06;89.83;100057.31;4992633;28;20467;-50
2022/02/15 11:15:25;;;;;;;0.30;0.20;;;;;;;9.19;90.12;100047.25;4995957;28;20564;-50
2022/02/15 11:17:59;;;;;;;0.30;0.20;;;;;;;9.41;89.60;100045.75;4984389;28;20462;-50
2022/02/15 11:20:29;;;;;;;0.30;0.20;;;;;;;9.50;87.85;100047.28;4996245;28;20930;-50
2022/02/15 11:22:59;;;;;;;0.30;0.20;;;;;;;9.47;87.71;100045.59;4996199;28;20500;-50
2022/02/15 11:25:35;;;;;;;0.30;0.20;;;;;;;9.65;88.11;100057.47;4996267;28;20476;-50
2022/02/15 11:28:13;;;;;;;0.30;0.17;;;;;;;9.70;89.07;100049.34;4996220;28;20832;-50
2022/02/15 11:31:06;;;;;;;0.30;0.20;;;;;;;9.62;87.65;100052.25;4996274;28;20473;-50
2022/02/15 11:33:39;;;;;;;0.30;0.20;;;;;;;9.73;87.49;100054.56;4992789;28;20497;-50
2022/02/15 11:36:08;;;;;;;0.30;0.20;;;;;;;9.69;86.51;100047.63;4995820;28;20484;-50
2022/02/15 11:38:36;;;;;;;0.30;0.20;;;;;;;9.78;86.88;100048.22;4995907;28;20516;-50
2022/02/15 11:41:03;;;;;;;0.30;0.20;;;;;;;9.82;85.75;100045.47;4996281;28;20455;-50
2022/02/15 11:43:30;;;;;;;0.30;0.20;;;;;;;10.03;84.03;100052.81;4995924;28;20547;-50
2022/02/15 11:45:58;;;;;;;0.30;0.20;;;;;;;10.17;83.60;100039.97;4995890;28;20520;-50
2022/02/15 11:48:42;;;;;;;0.30;0.20;;;;;;;10.07;80.80;100042.03;4995707;28;20874;-50